Tiempo atmosférico en la estación meteorológica de Candelaria, Santa Cruz de Tenerife (463 m.)



Fecha
DESCASC
Temp. máxima en grados centígrados (hora)
DESCASC
Temp. mínima en grados centígrados (hora)
DESCASC
Temp. media en grados centígrados
DESCASC
Racha de viento máxima en m/sg (hora)
DESCASC
Velocidad máxima media en intervalos de 10 minutos(hora)
DESCASC
Precipitaciones diarias en mm
DESCASC
Precipitaciones de 00:00 a 06:00 en mm
DESCASC
Precipitaciones de 06:00 a 12:00 en mm
DESCASC
Precipitaciones de 12:00 a 18:00 en mm
DESCASC
Precipitaciones de 18:00 a 24:00 en mm
DESCASC
22-11-2020 22.1 (09:30) 16.8 (05:30) 19.4 6.39 (05:00) 5 (05:40) 0 0 0 0 0
21-11-2020 23.6 (11:00) 15.4 (07:20) 19.5 7.5 (13:00) 5 (17:10) 0 0 0 0 0
20-11-2020 24.7 (16:50) 14.3 (04:50) 19.5 5.56 (10:30) 4.17 (23:10) 0 0 0 0 0
19-11-2020 21.2 (10:10) 15.2 (00:00) 18.2 8.33 (10:30) 5.56 (10:30) 0 0 0 0 0
18-11-2020 28.7 (12:40) 18.7 (00:00) 23.7 7.22 (05:00) 5.83 (07:30) 0 0 0 0 0
17-11-2020 30.2 (14:00) 21.5 (00:00) 25.9 8.33 (14:20) 5.56 (14:20) 0 0 0 0 0
16-11-2020 28.5 (13:10) 16.3 (00:00) 22.4 6.11 (13:20) 3.89 (22:00) 0 0 0 0 0
15-11-2020 25 (14:30) 16.9 (00:00) 20.9 5 (12:30) 3.33 (12:10) 0 0 0 0 0
14-11-2020 25.5 (14:20) 19 (00:00) 22.3 6.39 (12:10) 3.89 (02:40) 0 0 0 0 0
13-11-2020 23.8 (15:00) 17.7 (00:00) 20.8 6.11 (21:40) 3.89 (20:20) 0 0 0 0 0
12-11-2020 21.3 (14:20) 15.3 (00:00) 18.3 4.72 (01:00) 3.06 (01:00) 0 0 0 0 0
11-11-2020 19.2 (12:00) 14.1 (00:00) 16.7 5 (21:10) 3.33 (02:10) 0 0 0 0 0
10-11-2020 18.6 (15:20) 14.2 (00:00) 16.4 6.39 (10:50) 4.17 (09:50) 0.2 0.2 0 0 0
09-11-2020 20.9 (11:10) 13.5 (00:00) 17.2 9.72 (17:00) 6.39 (11:40) 0 0 0 0 0
08-11-2020 21.1 (10:30) 13.7 (00:00) 17.4 6.39 (10:50) 4.17 (23:00) 0 0 0 0 0
07-11-2020 20 (09:50) 14.6 (00:00) 17.3 6.39 (11:10) 4.44 (07:40) 0.6 0 0 0.2 0.4
06-11-2020 21.2 (11:30) 13.3 (00:00) 17.3 6.94 (12:30) 4.72 (12:30) 0 0 0 0 0
05-11-2020 19.6 (14:20) 13.1 (00:00) 16.4 6.67 (02:00) 4.72 (16:40) 0.4 0 0.4 0 0
04-11-2020 18.5 (13:10) 14.2 (00:00) 16.3 9.17 (10:40) 6.67 (12:30) 4 0 0 3.4 0.6
03-11-2020 22.9 (16:30) 16.5 (00:00) 19.7 13.89 (13:00) 8.61 (15:00) 0 0 0 0 0
02-11-2020 23.5 (14:30) 16.8 (00:00) 20.1 10.56 (14:20) 5.56 (14:00) 0 0 0 0 0
01-11-2020 28.1 (14:00) 18.4 (00:00) 23.3 7.22 (11:30) 5 (01:20) 0 0 0 0 0
31-10-2020 28.1 (15:10) 18.8 (00:00) 23.4 10 (12:40) 6.67 (12:10) 0 0 0 0 0
30-10-2020 23.8 (11:10) 15.1 (00:00) 19.4 6.11 (14:20) 4.44 (06:30) 0 0 0 0 0
29-10-2020 23.7 (15:30) 14 (00:00) 18.9 10.28 (11:30) 5.56 (12:00) 0 0 0 0 0
28-10-2020 21.7 (15:50) 15.5 (00:00) 18.6 10.83 (12:50) 5.56 (14:40) 0 0 0 0 0
27-10-2020 23.8 (14:30) 15.2 (00:00) 19.5 11.67 (11:20) 6.39 (15:40) 0 0 0 0 0
26-10-2020 21.4 (11:40) 14.7 (00:00) 18 10.83 (12:10) 6.94 (12:10) 0 0 0 0 0

Gráficas

Temp. máximas Temp. mínimas Temp. medias Precipitaciones Rachas de viento máximas Velocidades máximas media en intervalos de 10 minutos

Datos horarios

Fecha y hora oficial Temperatura (ºC) Velocidad del viento (km/h) Dirección del viento Racha (km/h) Dirección de racha Precipitación (mm) Presión (hPa) Tendencia (hPa) Humedad (%)
2020-11-24 23:00:00 16.1 10 Norte 13 Norte 0 -- -- 26
2020-11-24 22:00:00 16.9 3 Norte 14 Norte 0 -- -- 27
2020-11-24 21:00:00 16.6 10 Norte 17 Norte 0 -- -- 28
2020-11-24 20:00:00 17.1 11 Norte 14 Norte 0 -- -- 28
2020-11-24 19:00:00 18.1 6 Nordeste 10 Nordeste 0 -- -- 35
2020-11-24 18:00:00 19.2 4 Nordeste 8 Nordeste 0 -- -- 30
2020-11-24 17:00:00 21.1 5 Sudeste 14 Sudeste 0 -- -- 31
2020-11-24 16:00:00 21.4 6 Sur 15 Sudoeste 0 -- -- 32
2020-11-24 15:00:00 22.2 10 Sur 18 Sudoeste 0 -- -- 22
2020-11-24 14:00:00 22.2 8 Sudeste 23 Sudoeste 0 -- -- 29
2020-11-24 13:00:00 22.9 14 Sur 24 Sur 0 -- -- 26
2020-11-24 12:00:00 22 6 Sudoeste 15 Sudoeste 0 -- -- 43
2020-11-24 11:00:00 20.1 3 Sudeste 8 Sudoeste 0 -- -- 60
2020-11-24 10:00:00 19.5 4 Oeste 8 Noroeste 0 -- -- 51
2020-11-24 09:00:00 17.7 3 Noroeste 5 Noroeste 0 -- -- 52
2020-11-24 08:00:00 16.9 5 Noroeste 8 Noroeste 0 -- -- 44
2020-11-24 07:00:00 17.2 4 Este 11 Norte 0 -- -- 39
2020-11-24 06:00:00 16.2 8 Nordeste 12 Norte 0 -- -- 39
2020-11-24 05:00:00 16.1 8 Norte 13 Norte 0 -- -- 41
2020-11-24 04:00:00 16.9 4 Nordeste 10 Nordeste 0 -- -- 42
2020-11-24 03:00:00 16.5 2 Norte 8 Norte 0 -- -- 57
2020-11-24 02:00:00 18.4 3 Sudeste 15 Noroeste 0 -- -- 34
2020-11-24 01:00:00 19 13 Norte 18 Noroeste 0 -- -- 27
2020-11-24 00:00:00 19.2 12 Norte 18 Noroeste 0 -- -- 25
2020-11-23 23:00:00 18.1 10 Norte 17 Norte 0 -- -- 26
2020-11-23 22:00:00 18.9 13 Norte 24 Noroeste 0 -- -- 31
2020-11-23 21:00:00 19 12 Norte 19 Norte 0 -- -- 32
2020-11-23 20:00:00 18.6 12 Norte 15 Norte 0 -- -- 35
2020-11-23 19:00:00 19 12 Norte 15 Norte 0 -- -- 39
2020-11-23 18:00:00 20.1 2 Este 9 Sur 0 -- -- 42
2020-11-23 17:00:00 21.3 6 Sudeste 17 Sur 0 -- -- 40
2020-11-23 16:00:00 22.3 10 Sudoeste 20 Sudoeste 0 -- -- 40
2020-11-23 15:00:00 23.5 11 Sudoeste 23 Oeste 0 -- -- 34
2020-11-23 14:00:00 23.2 11 Sur 28 Sudoeste 0 -- -- 42
2020-11-23 13:00:00 23.4 14 Sudoeste 23 Sudoeste 0 -- -- 36
2020-11-23 12:00:00 23.7 9 Sudoeste 18 Sudoeste 0 -- -- 45
2020-11-23 11:00:00 24 8 Sudoeste 16 Oeste 0 -- -- 46
2020-11-23 10:00:00 22.2 5 Oeste 15 Noroeste 0 -- -- 44
2020-11-23 09:00:00 19.7 3 Norte 14 Noroeste 0 -- -- 39
2020-11-23 08:00:00 16.1 4 Norte 10 Norte 0 -- -- 50
2020-11-23 07:00:00 14.4 4 Noroeste 10 Norte 0 -- -- 49
2020-11-23 06:00:00 15.1 4 Norte 14 Norte 0 -- -- 49
2020-11-23 05:00:00 15.4 8 Nordeste 12 Norte 0 -- -- 48
2020-11-23 04:00:00 16.7 8 Nordeste 10 Nordeste 0 -- -- 41
2020-11-23 03:00:00 17.1 6 Norte 8 Norte 0 -- -- 32
2020-11-23 02:00:00 18.2 8 Norte 19 Norte 0 -- -- 30
2020-11-23 01:00:00 18.5 14 Norte 21 Norte 0 -- -- 33
2020-11-23 00:00:00 18.6 17 Norte 22 Norte 0 -- -- 34
2020-11-22 23:00:00 18.6 8 Norte 15 Norte 0 -- -- 36
2020-11-22 22:00:00 17.8 11 Norte 14 Nordeste 0 -- -- 39
2020-11-22 21:00:00 18.2 9 Nordeste 16 Nordeste 0 -- -- 38
2020-11-22 20:00:00 17.7 5 Nordeste 9 Nordeste 0 -- -- 45
2020-11-22 19:00:00 17.7 5 Sudeste 11 Sudeste 0 -- -- 87
2020-11-22 18:00:00 18.2 8 Sudeste 15 Sudeste 0 -- -- 86
2020-11-22 17:00:00 19 7 Sudeste 20 Sudeste 0 -- -- 82
2020-11-22 16:00:00 19.9 12 Sudeste 18 Sur 0 -- -- 77
2020-11-22 15:00:00 20.3 9 Sur 18 Sudeste 0 -- -- 67
2020-11-22 14:00:00 21.4 10 Sudeste 22 Sur 0 -- -- 55
2020-11-22 13:00:00 21.9 13 Sudeste 22 Sudeste 0 -- -- 63
2020-11-22 12:00:00 21 14 Sudeste 22 Sur 0 -- -- 67
2020-11-22 11:00:00 20.8 13 Sudeste 18 Sudeste 0 -- -- 66
2020-11-22 10:00:00 21.4 12 Sudeste 18 Sudeste 0 -- -- 51
2020-11-22 09:00:00 20.3 4 Sudeste 12 Norte 0 -- -- 43
2020-11-22 08:00:00 18 9 Norte 22 Nordeste 0 -- -- 42
2020-11-22 07:00:00 17.2 14 Norte 22 Norte 0 -- -- 44
2020-11-22 06:00:00 17.4 15 Norte 22 Norte 0 -- -- 43
2020-11-22 05:00:00 17.4 15 Nordeste 23 Nordeste 0 -- -- 43
2020-11-22 04:00:00 17.7 13 Nordeste 19 Nordeste 0 -- -- 41
2020-11-22 03:00:00 18 9 Nordeste 18 Nordeste 0 -- -- 41
2020-11-22 02:00:00 18.1 12 Norte 19 Nordeste 0 -- -- 38
2020-11-22 01:00:00 17.8 16 Norte 21 Nordeste 0 -- -- 40
2020-11-22 00:00:00 17.6 6 Nordeste 16 Nordeste 0 -- -- 41
2020-11-21 23:00:00 18.1 13 Norte 17 Norte 0 -- -- 40
2020-11-21 22:00:00 18.9 8 Nordeste 15 Nordeste 0 -- -- 40
2020-11-21 21:00:00 19.4 5 Nordeste 21 Nordeste 0 -- -- 41
2020-11-21 20:00:00 20.1 13 Este 23 Sudeste 0 -- -- 40
2020-11-21 19:00:00 20.7 13 Este 20 Nordeste 0 -- -- 36
2020-11-21 18:00:00 20.8 12 Este 25 Sudeste 0 -- -- 36
2020-11-21 17:00:00 21.8 16 Sudeste 25 Sudeste 0 -- -- 36
2020-11-21 16:00:00 22.7 17 Sudeste 25 Sudeste 0 -- -- 39
2020-11-21 15:00:00 22.4 14 Sudeste 21 Sur 0 -- -- 55
2020-11-21 14:00:00 22.9 13 Sudeste 20 Sudeste 0 -- -- 54
2020-11-21 13:00:00 23.1 13 Sudeste 27 Sudeste 0 -- -- 55
2020-11-21 12:00:00 22.7 12 Sudeste 20 Sudeste 0 -- -- 60
2020-11-21 11:00:00 23.6 8 Sudeste 13 Sudeste 0 -- -- 56
2020-11-21 10:00:00 23.1 4 Sur 10 Sudeste 0 -- -- 48
2020-11-21 09:00:00 21 3 Sudoeste 8 Noroeste 0 -- -- 46
2020-11-21 08:00:00 16.2 6 Norte 12 Norte 0 -- -- 49
2020-11-21 07:00:00 15.6 3 Noroeste 14 Norte 0 -- -- 49
2020-11-21 06:00:00 16.5 4 Norte 14 Norte 0 -- -- 47
2020-11-21 05:00:00 17.2 5 Norte 13 Norte 0 -- -- 43
2020-11-21 04:00:00 17.3 13 Norte 15 Norte 0 -- -- 44
2020-11-21 03:00:00 17.4 12 Norte 16 Norte 0 -- -- 44
2020-11-21 02:00:00 17.6 6 Nordeste 11 Norte 0 -- -- 44
2020-11-21 01:00:00 19.6 7 Nordeste 18 Este 0 -- -- 39
2020-11-21 00:00:00 19.5 3 Este 19 Norte 0 -- -- 52
2020-11-20 23:00:00 19.4 15 Norte 20 Nordeste 0 -- -- 37
2020-11-20 22:00:00 18.6 5 Norte 15 Norte 0 -- -- 46
2020-11-20 21:00:00 18.6 2 Este 8 Nordeste 0 -- -- 49
2020-11-20 20:00:00 20.2 8 Norte 14 Norte 0 -- -- 38
2020-11-20 19:00:00 20.4 11 Norte 15 Norte 0 -- -- 42
2020-11-20 18:00:00 21.8 3 Sudeste 15 Noroeste 0 -- -- 49
2020-11-20 17:00:00 24.5 6 Oeste 14 Oeste 0 -- -- 36
2020-11-20 16:00:00 23.6 6 Oeste 20 Sudoeste 0 -- -- 45
2020-11-20 15:00:00 24.3 12 Sudoeste 20 Sudoeste 0 -- -- 41
2020-11-20 14:00:00 23.4 8 Sur 16 Sur 0 -- -- 58
2020-11-20 13:00:00 22 9 Sudeste 20 Sudeste 0 -- -- 72
2020-11-20 12:00:00 23.8 7 Sudoeste 18 Sur 0 -- -- 44
2020-11-20 11:00:00 21.3 5 Sur 20 Sur 0 -- -- 71
2020-11-20 10:00:00 20.8 6 Este 10 Sur 0 -- -- 73
2020-11-20 09:00:00 19.5 5 Sur 18 Norte 0 -- -- 72
2020-11-20 08:00:00 15.2 7 Nordeste 12 Este 0 -- -- 91
2020-11-20 07:00:00 14.9 4 Nordeste 9 Este 0 -- -- 91
2020-11-20 06:00:00 15.4 6 Este 14 Este 0 -- -- 91
2020-11-20 05:00:00 14.6 4 Nordeste 13 Noroeste 0 -- -- 93
2020-11-20 04:00:00 15.2 6 Norte 10 Norte 0 -- -- 91
2020-11-20 03:00:00 15.1 4 Nordeste 10 Este 0 -- -- 91
2020-11-20 02:00:00 15.2 4 Este 9 Sudeste 0 -- -- 91
2020-11-20 01:00:00 14.6 5 Norte 9 Nordeste 0 -- -- 90
2020-11-20 00:00:00 15.3 4 Nordeste 12 Norte 0 -- -- 87
2020-11-19 23:00:00 15.6 7 Nordeste 13 Nordeste 0 -- -- 87
2020-11-19 22:00:00 16.2 7 Norte 9 Norte 0 -- -- 83
2020-11-19 21:00:00 16.7 3 Este 13 Sudeste 0 -- -- 86
2020-11-19 20:00:00 17.2 9 Sudeste 16 Sudeste 0 -- -- 89
2020-11-19 19:00:00 17.4 11 Sudeste 15 Sudeste 0 -- -- 88
2020-11-19 18:00:00 17.7 10 Sudeste 16 Sudeste 0 -- -- 88
2020-11-19 17:00:00 18.1 10 Sudeste 19 Sudeste 0 -- -- 86
2020-11-19 16:00:00 18.4 14 Sudeste 20 Sudeste 0 -- -- 83
2020-11-19 15:00:00 18.6 12 Sudeste 20 Sudeste 0 -- -- 83
2020-11-19 14:00:00 18.6 11 Sudeste 24 Sudeste 0 -- -- 85
2020-11-19 13:00:00 19.2 15 Sudeste 23 Sudeste 0 -- -- 82
2020-11-19 12:00:00 20.4 15 Sudeste 24 Sudeste 0 -- -- 69
2020-11-19 11:00:00 19.1 18 Sudeste 30 Sudeste 0 -- -- 79
2020-11-19 10:00:00 21.1 10 Sudoeste 22 Oeste 0 -- -- 68
2020-11-19 09:00:00 19.8 12 Noroeste 19 Noroeste 0 -- -- 72
2020-11-19 08:00:00 17.5 9 Noroeste 16 Noroeste 0 -- -- 67
2020-11-19 07:00:00 16.3 9 Noroeste 12 Noroeste 0 -- -- 63
2020-11-19 06:00:00 16.2 6 Noroeste 10 Norte 0 -- -- 58
2020-11-19 05:00:00 16.4 4 Nordeste 9 Norte 0 -- -- 54
2020-11-19 04:00:00 17.1 6 Norte 11 Norte 0 -- -- 44
2020-11-19 03:00:00 17.3 4 Nordeste 9 Noroeste 0 -- -- 48
2020-11-19 02:00:00 17.3 5 Norte 9 Nordeste 0 -- -- 50
2020-11-19 01:00:00 18.1 0 Calma 8 Noroeste 0 -- -- 46
2020-11-19 00:00:00 18.7 4 Norte 10 Norte 0 -- -- 45
2020-11-18 23:00:00 19.5 3 Nordeste 13 Norte 0 -- -- 40
2020-11-18 22:00:00 19.7 6 Norte 13 Norte 0 -- -- 40
2020-11-18 21:00:00 20.5 9 Norte 14 Norte 0 -- -- 35
2020-11-18 20:00:00 21.1 14 Norte 17 Norte 0 -- -- 36
2020-11-18 19:00:00 22.1 12 Norte 15 Norte 0 -- -- 35
2020-11-18 18:00:00 24.4 3 Oeste 9 Sur 0 -- -- 31
2020-11-18 17:00:00 26.3 5 Sur 15 Sur 0 -- -- 29
2020-11-18 16:00:00 26.8 8 Sur 15 Sur 0 -- -- 25
2020-11-18 15:00:00 26.8 9 Sur 18 Sur 0 -- -- 25
2020-11-18 14:00:00 27.9 9 Sudeste 17 Sudeste 0 -- -- 22
2020-11-18 13:00:00 28.2 12 Sudeste 20 Sudeste 0 -- -- 28
2020-11-18 12:00:00 28.1 10 Sudeste 14 Sudeste 0 -- -- 24
2020-11-18 11:00:00 27.7 10 Sur 17 Sur 0 -- -- 26
2020-11-18 10:00:00 27.8 6 Sudeste 12 Sudeste 0 -- -- 23
2020-11-18 09:00:00 27.4 7 Sur 19 Norte 0 -- -- 23
2020-11-18 08:00:00 22.5 17 Nordeste 24 Norte 0 -- -- 30
2020-11-18 07:00:00 21.6 19 Norte 25 Nordeste 0 -- -- 31
2020-11-18 06:00:00 21.8 19 Norte 24 Norte 0 -- -- 31
2020-11-18 05:00:00 21.9 18 Norte 26 Norte 0 -- -- 31
2020-11-18 04:00:00 21.7 18 Norte 22 Norte 0 -- -- 32
2020-11-18 03:00:00 21.5 18 Norte 22 Norte 0 -- -- 33
2020-11-18 02:00:00 22.1 18 Norte 22 Norte 0 -- -- 32
2020-11-18 01:00:00 22.6 16 Norte 21 Norte 0 -- -- 31
2020-11-18 00:00:00 22.6 18 Norte 22 Norte 0 -- -- 31
2020-11-17 23:00:00 21.9 15 Norte 18 Norte 0 -- -- 32
2020-11-17 22:00:00 22.6 13 Nordeste 22 Norte 0 -- -- 30
2020-11-17 21:00:00 23.3 17 Norte 23 Norte 0 -- -- 29
2020-11-17 20:00:00 23.2 16 Norte 21 Norte 0 -- -- 28
2020-11-17 19:00:00 23.3 6 Norte 14 Nordeste 0 -- -- 34
2020-11-17 18:00:00 25 7 Norte 13 Norte 0 -- -- 28
2020-11-17 17:00:00 27.1 4 Sudoeste 15 Sur 0 -- -- 28
2020-11-17 16:00:00 28.1 10 Sudoeste 19 Sur 0 -- -- 25
2020-11-17 15:00:00 28.3 13 Sur 30 Sudoeste 0 -- -- 26
2020-11-17 14:00:00 30.2 17 Sudoeste 27 Sudoeste 0 -- -- 19
2020-11-17 13:00:00 29.5 12 Sudoeste 28 Sudoeste 0 -- -- 21
2020-11-17 12:00:00 29.2 10 Sur 21 Sur 0 -- -- 21
2020-11-17 11:00:00 28.8 8 Sudoeste 17 Sudoeste 0 -- -- 22
2020-11-17 10:00:00 27.4 5 Sur 12 Norte 0 -- -- 22
2020-11-17 09:00:00 23.1 12 Norte 21 Nordeste 0 -- -- 29
2020-11-17 08:00:00 22.2 17 Norte 20 Norte 0 -- -- 28
2020-11-17 07:00:00 21.9 16 Norte 20 Nordeste 0 -- -- 30
2020-11-17 06:00:00 21.8 13 Norte 14 Norte 0 -- -- 32
2020-11-17 05:00:00 22.2 2 Este 12 Noroeste 0 -- -- 31
2020-11-17 04:00:00 23.5 8 Noroeste 13 Noroeste 0 -- -- 28
2020-11-17 03:00:00 23.8 6 Noroeste 14 Norte 0 -- -- 28
2020-11-17 02:00:00 23.8 11 Norte 14 Norte 0 -- -- 28
2020-11-17 01:00:00 23.4 12 Norte 18 Noroeste 0 -- -- 28
2020-11-17 00:00:00 22.5 9 Norte 16 Norte 0 -- -- 30
2020-11-16 23:00:00 22.2 6 Norte 15 Norte 0 -- -- 31
2020-11-16 22:00:00 22.4 14 Norte 18 Norte 0 -- -- 31
2020-11-16 21:00:00 21.9 12 Nordeste 16 Nordeste 0 -- -- 33
2020-11-16 20:00:00 21.1 5 Sudeste 12 Norte 0 -- -- 50
2020-11-16 19:00:00 21.3 3 Este 7 Nordeste 0 -- -- 52
2020-11-16 18:00:00 23.1 0 Calma 6 Sur 0 -- -- 54
2020-11-16 17:00:00 23.3 2 Este 10 Sudeste 0 -- -- 61
2020-11-16 16:00:00 23.7 8 Sudeste 14 Sur 0 -- -- 66
2020-11-16 15:00:00 24.4 5 Sur 16 Sudoeste 0 -- -- 54
2020-11-16 14:00:00 27.9 9 Sudoeste 22 Oeste 0 -- -- 36
2020-11-16 13:00:00 28.2 9 Sudoeste 18 Oeste 0 -- -- 34
2020-11-16 12:00:00 27.4 8 Oeste 15 Oeste 0 -- -- 40
2020-11-16 11:00:00 25.6 4 Sudeste 18 Noroeste 0 -- -- 49
2020-11-16 10:00:00 24.5 2 Este 9 Sur 0 -- -- 39
2020-11-16 09:00:00 21.9 4 Norte 11 Nordeste 0 -- -- 39
2020-11-16 08:00:00 18 2 Norte 8 Norte 0 -- -- 53
2020-11-16 07:00:00 16.7 6 Noroeste 9 Norte 0 -- -- 57
2020-11-16 06:00:00 17.4 3 Norte 11 Norte 0 -- -- 55
2020-11-16 05:00:00 17.5 2 Nordeste 11 Norte 0 -- -- 57
2020-11-16 04:00:00 17.4 3 Noroeste 13 Norte 0 -- -- 63
2020-11-16 03:00:00 17.1 2 Este 14 Norte 0 -- -- 60
2020-11-16 02:00:00 16.6 4 Norte 9 Norte 0 -- -- 85
2020-11-16 01:00:00 17.1 3 Sur 9 Norte 0 -- -- 82
2020-11-16 00:00:00 17.7 6 Este 13 Nordeste 0 -- -- 79
2020-11-15 23:00:00 17.9 6 Noroeste 9 Norte 0 -- -- 91
2020-11-15 22:00:00 18.2 0 Calma 8 Oeste 0 -- -- 87
2020-11-15 21:00:00 19.6 5 Noroeste 9 Oeste 0 -- -- 92
2020-11-15 20:00:00 20 0 Calma 10 Norte 0 -- -- 90
2020-11-15 19:00:00 20.1 5 Noroeste 9 Sur 0 -- -- 87
2020-11-15 18:00:00 21.2 3 Sudeste 11 Sudeste 0 -- -- 85
2020-11-15 17:00:00 23.4 4 Sudeste 12 Sur 0 -- -- 75
2020-11-15 16:00:00 24.7 7 Sudeste 12 Sur 0 -- -- 63
2020-11-15 15:00:00 24.6 4 Sudeste 18 Sudoeste 0 -- -- 62
2020-11-15 14:00:00 23.9 8 Sudeste 15 Este 0 -- -- 71
2020-11-15 13:00:00 23.6 6 Sudeste 18 Sudeste 0 -- -- 64
2020-11-15 12:00:00 24.9 9 Sudeste 17 Sudeste 0 -- -- 61
2020-11-15 11:00:00 24.5 9 Sur 15 Sur 0 -- -- 60
2020-11-15 10:00:00 24.1 6 Sudoeste 12 Sudoeste 0 -- -- 56
2020-11-15 09:00:00 23.1 5 Sur 12 Sudoeste 0 -- -- 54
2020-11-15 08:00:00 18.7 6 Noroeste 12 Norte 0 -- -- 58
2020-11-15 07:00:00 18.5 3 Noroeste 14 Norte 0 -- -- 58
2020-11-15 06:00:00 18 4 Norte 13 Norte 0 -- -- 61
2020-11-15 05:00:00 18.7 7 Noroeste 14 Noroeste 0 -- -- 60
2020-11-15 04:00:00 19.2 4 Nordeste 17 Este 0 -- -- 59
2020-11-15 03:00:00 19.6 5 Sudeste 13 Este 0 -- -- 56
2020-11-15 02:00:00 19.6 5 Noroeste 13 Norte 0 -- -- 61
2020-11-15 01:00:00 19.6 3 Sudoeste 10 Este 0 -- -- 65
2020-11-15 00:00:00 20.3 4 Este 16 Nordeste 0 -- -- 60
2020-11-14 23:00:00 19.7 5 Norte 12 Norte 0 -- -- 66
2020-11-14 22:00:00 19.7 8 Nordeste 14 Nordeste 0 -- -- 64
2020-11-14 21:00:00 19.5 3 Norte 14 Noroeste 0 -- -- 76
2020-11-14 20:00:00 19.9 5 Noroeste 13 Noroeste 0 -- -- 85
2020-11-14 19:00:00 20.3 6 Noroeste 14 Oeste 0 -- -- 87
2020-11-14 18:00:00 20.8 3 Nordeste 16 Sudeste 0 -- -- 85
2020-11-14 17:00:00 22.3 6 Sur 14 Sudeste 0 -- -- 80
2020-11-14 16:00:00 23.5 13 Sudeste 21 Sudeste 0 -- -- 77
2020-11-14 15:00:00 24.2 13 Sudeste 21 Sudeste 0 -- -- 73
2020-11-14 14:00:00 25 11 Sudeste 20 Sudeste 0 -- -- 54
2020-11-14 13:00:00 24.4 8 Sudeste 23 Sudeste 0 -- -- 60
2020-11-14 12:00:00 24.2 10 Sudeste 18 Sur 0 -- -- 57
2020-11-14 11:00:00 23.5 10 Sudeste 17 Sudeste 0 -- -- 59
2020-11-14 10:00:00 21.7 3 Sudeste 12 Sudeste 0 -- -- 51
2020-11-14 09:00:00 21.6 3 Nordeste 21 Nordeste 0 -- -- 36
2020-11-14 08:00:00 20.6 6 Nordeste 14 Nordeste 0 -- -- 36
2020-11-14 07:00:00 20.6 4 Nordeste 19 Sudeste 0 -- -- 35
2020-11-14 06:00:00 20.6 5 Este 15 Este 0 -- -- 37
2020-11-14 05:00:00 21.2 9 Este 15 Sudeste 0 -- -- 36
2020-11-14 04:00:00 20.7 8 Este 17 Nordeste 0 -- -- 40
2020-11-14 03:00:00 20.6 13 Este 21 Este 0 -- -- 40
2020-11-14 02:00:00 20.3 9 Este 22 Este 0 -- -- 40
2020-11-14 01:00:00 19.3 7 Nordeste 17 Sudeste 0 -- -- 38
2020-11-14 00:00:00 20.5 3 Nordeste 15 Este 0 -- -- 36
2020-11-13 23:00:00 21.5 7 Este 17 Este 0 -- -- 35
2020-11-13 22:00:00 22 8 Este 22 Nordeste 0 -- -- 32
2020-11-13 21:00:00 21.6 8 Este 19 Este 0 -- -- 34
2020-11-13 20:00:00 21.3 3 Este 13 Noroeste 0 -- -- 38
2020-11-13 19:00:00 22.1 5 Sudeste 15 Nordeste 0 -- -- 37
2020-11-13 18:00:00 22.5 7 Sudeste 12 Sudeste 0 -- -- 39
2020-11-13 17:00:00 22.6 7 Nordeste 15 Este 0 -- -- 42
2020-11-13 16:00:00 23.4 6 Nordeste 10 Sur 0 -- -- 38
2020-11-13 15:00:00 23.8 6 Sudeste 20 Norte 0 -- -- 39
2020-11-13 14:00:00 23.3 6 Sudeste 16 Sudoeste 0 -- -- 44
2020-11-13 13:00:00 22.7 3 Noroeste 12 Oeste 0 -- -- 38
2020-11-13 12:00:00 20.9 3 Noroeste 18 Norte 0 -- -- 57
2020-11-13 11:00:00 20.3 8 Sur 13 Sur 0 -- -- 61
2020-11-13 10:00:00 19.4 4 Noroeste 7 Noroeste 0 -- -- 60
2020-11-13 09:00:00 19.3 4 Este 7 Norte 0 -- -- 73
2020-11-13 08:00:00 19.6 4 Norte 16 Norte 0 -- -- 49
2020-11-13 07:00:00 19.9 5 Sur 14 Oeste 0 -- -- 47
2020-11-13 06:00:00 18.7 3 Nordeste 8 Norte 0 -- -- 52
2020-11-13 05:00:00 18.3 4 Norte 6 Norte 0 -- -- 59
2020-11-13 04:00:00 18.4 2 Sudeste 5 Norte 0 -- -- 84
2020-11-13 03:00:00 18.4 0 Calma 8 Norte 0 -- -- 54
2020-11-13 02:00:00 18.2 3 Norte 7 Norte 0 -- -- 57
2020-11-13 01:00:00 18.4 0 Calma 6 Norte 0 -- -- 56
2020-11-13 00:00:00 18.8 0 Calma 6 Norte 0 -- -- 60
2020-11-12 23:00:00 17.7 2 Norte 5 Sudeste 0 -- -- 71
2020-11-12 22:00:00 17.5 3 Este 5 Este 0 -- -- 93
2020-11-12 21:00:00 17.2 0 Calma 7 Nordeste 0 -- -- 86
2020-11-12 20:00:00 17.9 0 Calma 5 Sudeste 0 -- -- 90
2020-11-12 19:00:00 19.3 0 Calma 5 Sudeste 0 -- -- 68
2020-11-12 18:00:00 19.8 0 Calma 7 Norte 0 -- -- 84
2020-11-12 17:00:00 20.4 2 Sudeste 7 Sur 0 -- -- 82
2020-11-12 16:00:00 20.2 4 Sudeste 9 Sudoeste 0 -- -- 83
2020-11-12 15:00:00 20.6 4 Sudeste 11 Oeste 0 -- -- 81
2020-11-12 14:00:00 20.9 5 Sudeste 12 Sudeste 0 -- -- 80
2020-11-12 13:00:00 20.1 6 Sur 12 Sudoeste 0 -- -- 83
2020-11-12 12:00:00 19.8 6 Sudoeste 13 Sudoeste 0 -- -- 81
2020-11-12 11:00:00 18.9 6 Sudoeste 10 Oeste 0 -- -- 85
2020-11-12 10:00:00 17.9 4 Sudoeste 10 Sudoeste 0 -- -- 90
2020-11-12 09:00:00 16.9 0 Calma 5 Norte 0 -- -- 94
2020-11-12 08:00:00 15.8 4 Nordeste 6 Nordeste 0 -- -- 94
2020-11-12 07:00:00 15.8 3 Noroeste 5 Norte 0 -- -- 96
2020-11-12 06:00:00 15.3 0 Calma 8 Noroeste 0 -- -- 93
2020-11-12 05:00:00 16 4 Noroeste 9 Noroeste 0 -- -- 92
2020-11-12 04:00:00 16.2 4 Noroeste 12 Noroeste 0 -- -- 92
2020-11-12 03:00:00 16.4 6 Noroeste 12 Oeste 0 -- -- 92
2020-11-12 02:00:00 16.5 7 Noroeste 15 Noroeste 0 -- -- 91
2020-11-12 01:00:00 16.8 11 Noroeste 17 Noroeste 0 -- -- 90
2020-11-12 00:00:00 16.8 9 Noroeste 11 Noroeste 0 -- -- 90
2020-11-11 23:00:00 16.8 6 Noroeste 14 Noroeste 0 -- -- 89
2020-11-11 22:00:00 16.8 9 Noroeste 18 Noroeste 0 -- -- 88
2020-11-11 21:00:00 17 10 Noroeste 16 Noroeste 0 -- -- 88
2020-11-11 20:00:00 17.2 0 Calma 4 Oeste 0 -- -- 86
2020-11-11 19:00:00 17.3 2 Sur 11 Sudeste 0 -- -- 90
2020-11-11 18:00:00 17.4 6 Sudeste 13 Sudeste 0 -- -- 88
2020-11-11 17:00:00 17.7 9 Sudeste 14 Sudeste 0 -- -- 86
2020-11-11 16:00:00 18.1 8 Sudeste 15 Sudeste 0 -- -- 85
2020-11-11 15:00:00 18.5 9 Sudeste 17 Sudeste 0 -- -- 82
2020-11-11 14:00:00 18.2 5 Sudeste 14 Sudeste 0 -- -- 83
2020-11-11 13:00:00 18.3 9 Sudeste 15 Sur 0 -- -- 83
2020-11-11 12:00:00 19.2 8 Sudeste 14 Sudeste 0 -- -- 79
2020-11-11 11:00:00 18 5 Sur 10 Sur 0 -- -- 83
2020-11-11 10:00:00 17.5 4 Sudeste 12 Sudeste 0 -- -- 83
2020-11-11 09:00:00 17.5 4 Sudeste 10 Sudeste 0 -- -- 84
2020-11-11 08:00:00 14.4 8 Norte 12 Norte 0 -- -- 89
2020-11-11 07:00:00 14.6 5 Nordeste 11 Nordeste 0 -- -- 88
2020-11-11 06:00:00 14.7 4 Nordeste 10 Norte 0 -- -- 88
2020-11-11 05:00:00 14.9 5 Nordeste 12 Norte 0 -- -- 86
2020-11-11 04:00:00 14.4 7 Norte 13 Norte 0 -- -- 88
2020-11-11 03:00:00 14.4 8 Nordeste 17 Nordeste 0 -- -- 86
2020-11-11 02:00:00 14.9 8 Nordeste 13 Nordeste 0 -- -- 85
2020-11-11 01:00:00 14.7 5 Nordeste 15 Nordeste 0 -- -- 87
2020-11-11 00:00:00 14.3 12 Norte 15 Norte 0 -- -- 86
2020-11-10 23:00:00 14.6 5 Nordeste 14 Nordeste 0 -- -- 86
2020-11-10 22:00:00 14.7 9 Nordeste 15 Nordeste 0 -- -- 84
2020-11-10 21:00:00 15.4 5 Norte 11 Nordeste 0 -- -- 84
2020-11-10 20:00:00 15.8 7 Nordeste 13 Este 0 -- -- 80
2020-11-10 19:00:00 16.2 5 Nordeste 14 Sudeste 0 -- -- 80
2020-11-10 18:00:00 16.9 6 Sudeste 14 Sudeste 0 -- -- 80
2020-11-10 17:00:00 17.2 10 Sudeste 18 Sudeste 0 -- -- 76
2020-11-10 16:00:00 17.9 13 Sudeste 22 Sudeste 0 -- -- 73
2020-11-10 15:00:00 18.4 12 Sudeste 23 Sudeste 0 -- -- 73
2020-11-10 14:00:00 18.3 15 Sudeste 23 Sudeste 0 -- -- 74
2020-11-10 13:00:00 18.1 13 Sudeste 22 Sudeste 0 -- -- 76
2020-11-10 12:00:00 18 14 Sudeste 21 Sudeste 0 -- -- 77
2020-11-10 11:00:00 17.9 12 Sudeste 23 Sudeste 0 -- -- 79
2020-11-10 10:00:00 18.3 14 Sudeste 22 Sudeste 0 -- -- 75
2020-11-10 09:00:00 17.3 8 Sudeste 15 Sudeste 0 -- -- 81
2020-11-10 08:00:00 16 11 Nordeste 17 Sudeste 0 -- -- 72
2020-11-10 07:00:00 16.2 4 Nordeste 17 Norte 0 -- -- 76
2020-11-10 06:00:00 15.8 7 Nordeste 16 Este 0 -- -- 84
2020-11-10 05:00:00 16 6 Nordeste 22 Sudeste 0 -- -- 76
2020-11-10 04:00:00 15.7 9 Nordeste 18 Sudeste 0 -- -- 88
2020-11-10 03:00:00 16.1 6 Este 17 Este 0.2 -- -- 89
2020-11-10 02:00:00 16.5 7 Nordeste 18 Este 0 -- -- 76
2020-11-10 01:00:00 16.7 12 Este 18 Este 0 -- -- 83
2020-11-10 00:00:00 16.8 6 Sudeste 17 Este 0 -- -- 81
2020-11-09 23:00:00 16.3 6 Este 15 Este 0 -- -- 76
2020-11-09 22:00:00 15 14 Norte 17 Norte 0 -- -- 70
2020-11-09 21:00:00 15 6 Nordeste 12 Norte 0 -- -- 80
2020-11-09 20:00:00 15.3 9 Norte 21 Sudeste 0 -- -- 82
2020-11-09 19:00:00 16.7 17 Sudeste 27 Sudeste 0 -- -- 90
2020-11-09 18:00:00 17.1 19 Sudeste 27 Sudeste 0 -- -- 88
2020-11-09 17:00:00 17.8 19 Sudeste 35 Sudeste 0 -- -- 85
2020-11-09 16:00:00 18.2 16 Sudeste 25 Sudeste 0 -- -- 81
2020-11-09 15:00:00 18.4 16 Sudeste 26 Sudeste 0 -- -- 80
2020-11-09 14:00:00 19 16 Sudeste 27 Sudeste 0 -- -- 73
2020-11-09 13:00:00 19.4 19 Sudeste 30 Sudeste 0 -- -- 75
2020-11-09 12:00:00 19.7 18 Sudeste 31 Sudeste 0 -- -- 70
2020-11-09 11:00:00 20.8 20 Sudeste 30 Sudeste 0 -- -- 68
2020-11-09 10:00:00 19.7 16 Sudeste 24 Sudeste 0 -- -- 67
2020-11-09 09:00:00 19.3 14 Sudeste 25 Sudeste 0 -- -- 68
2020-11-09 08:00:00 16.6 9 Este 19 Este 0 -- -- 63
2020-11-09 07:00:00 13.6 13 Norte 19 Norte 0 -- -- 75
2020-11-09 06:00:00 14.8 9 Noroeste 20 Nordeste 0 -- -- 73
2020-11-09 05:00:00 13.5 12 Norte 18 Norte 0 -- -- 77
2020-11-09 04:00:00 14.1 12 Norte 17 Norte 0 -- -- 73
2020-11-09 03:00:00 14.1 12 Norte 19 Norte 0 -- -- 72
2020-11-09 02:00:00 14.2 14 Norte 19 Norte 0 -- -- 77
2020-11-09 01:00:00 14.8 10 Norte 16 Norte 0 -- -- 76
2020-11-09 00:00:00 15.5 9 Nordeste 16 Nordeste 0 -- -- 74
2020-11-08 23:00:00 14.9 15 Norte 17 Norte 0 -- -- 75
2020-11-08 22:00:00 15.4 12 Norte 15 Norte 0 -- -- 72
2020-11-08 21:00:00 15.9 11 Norte 14 Norte 0 -- -- 75
2020-11-08 20:00:00 16 12 Norte 14 Norte 0 -- -- 78
2020-11-08 19:00:00 17.1 7 Norte 12 Noroeste 0 -- -- 79
2020-11-08 18:00:00 17.4 7 Noroeste 14 Noroeste 0 -- -- 81
2020-11-08 17:00:00 17.5 9 Noroeste 16 Norte 0 -- -- 81
2020-11-08 16:00:00 18 6 Sur 12 Sur 0 -- -- 77
2020-11-08 15:00:00 18.1 7 Sur 13 Sudeste 0 -- -- 78
2020-11-08 14:00:00 18 5 Sudeste 15 Sur 0 -- -- 77
2020-11-08 13:00:00 18.6 9 Sur 16 Sur 0 -- -- 73
2020-11-08 12:00:00 19 9 Sudoeste 18 Sudoeste 0 -- -- 71
2020-11-08 11:00:00 19.6 10 Sur 23 Sur 0 -- -- 67
2020-11-08 10:00:00 20.3 8 Sudoeste 20 Sur 0 -- -- 68
2020-11-08 09:00:00 19.5 5 Sudoeste 8 Sudoeste 0 -- -- 67
2020-11-08 08:00:00 15.7 9 Norte 15 Norte 0 -- -- 75
2020-11-08 07:00:00 13.7 13 Norte 15 Norte 0 -- -- 80
2020-11-08 06:00:00 14.3 10 Norte 15 Norte 0 -- -- 76
2020-11-08 05:00:00 14.2 13 Norte 18 Norte 0 -- -- 77
2020-11-08 04:00:00 14.5 11 Norte 15 Nordeste 0 -- -- 76
2020-11-08 03:00:00 14.8 10 Norte 12 Norte 0 -- -- 82
2020-11-08 02:00:00 15.6 8 Nordeste 13 Norte 0 -- -- 76
2020-11-08 01:00:00 15 11 Norte 17 Norte 0 -- -- 82
2020-11-08 00:00:00 15.2 13 Norte 17 Norte 0 -- -- 76
2020-11-07 23:00:00 14.8 13 Norte 17 Norte 0 -- -- 79
2020-11-07 22:00:00 15.9 12 Norte 18 Norte 0 -- -- 78
2020-11-07 21:00:00 15.4 12 Norte 16 Norte 0 -- -- 82
2020-11-07 20:00:00 16.7 6 Norte 9 Norte 0 -- -- 89
2020-11-07 19:00:00 17.4 2 Sudeste 7 Sur 0.4 -- -- 89
2020-11-07 18:00:00 17.7 5 Sur 9 Sur 0 -- -- 85
2020-11-07 17:00:00 18.2 5 Sudeste 11 Sudeste 0 -- -- 81
2020-11-07 16:00:00 18.2 3 Sur 6 Sur 0 -- -- 78
2020-11-07 15:00:00 17.7 3 Noroeste 10 Noroeste 0 -- -- 82
2020-11-07 14:00:00 17.4 3 Norte 7 Sudeste 0.2 -- -- 83
2020-11-07 13:00:00 17.3 6 Sur 15 Sur 0 -- -- 87
2020-11-07 12:00:00 17.5 9 Sudeste 23 Sur 0 -- -- 85
2020-11-07 11:00:00 18.3 14 Sur 21 Sur 0 -- -- 80
2020-11-07 10:00:00 19.6 6 Sur 13 Sudoeste 0 -- -- 68
2020-11-07 09:00:00 18.4 4 Oeste 15 Norte 0 -- -- 74
2020-11-07 08:00:00 15.6 14 Norte 18 Norte 0 -- -- 70
2020-11-07 07:00:00 14.8 12 Norte 17 Norte 0 -- -- 69
2020-11-07 06:00:00 14.7 13 Norte 19 Norte 0 -- -- 71
2020-11-07 05:00:00 15.2 11 Norte 15 Norte 0 -- -- 75
2020-11-07 04:00:00 15.8 12 Norte 15 Norte 0 -- -- 73
2020-11-07 03:00:00 15.7 13 Norte 17 Nordeste 0 -- -- 71
2020-11-07 02:00:00 16 12 Norte 15 Norte 0 -- -- 71
2020-11-07 01:00:00 16.1 11 Norte 17 Norte 0 -- -- 74
2020-11-07 00:00:00 16.7 10 Norte 13 Norte 0 -- -- 75
2020-11-06 23:00:00 16.9 7 Noroeste 18 Noroeste 0 -- -- 78
2020-11-06 22:00:00 17 11 Norte 20 Noroeste 0 -- -- 67
2020-11-06 21:00:00 17 13 Norte 17 Norte 0 -- -- 68
2020-11-06 20:00:00 17.4 9 Norte 16 Norte 0 -- -- 72
2020-11-06 19:00:00 17.5 9 Norte 15 Norte 0 -- -- 69
2020-11-06 18:00:00 18.6 8 Noroeste 19 Oeste 0 -- -- 70
2020-11-06 17:00:00 20.2 12 Oeste 22 Noroeste 0 -- -- 69
2020-11-06 16:00:00 19.9 9 Oeste 20 Sudoeste 0 -- -- 71
2020-11-06 15:00:00 19.4 8 Norte 19 Sur 0 -- -- 74
2020-11-06 14:00:00 19.3 8 Sudeste 23 Sur 0 -- -- 72
2020-11-06 13:00:00 19.3 15 Sur 25 Sur 0 -- -- 76
2020-11-06 12:00:00 19.9 9 Sur 21 Sudeste 0 -- -- 70
2020-11-06 11:00:00 19.8 9 Sur 17 Sur 0 -- -- 68
2020-11-06 10:00:00 19.7 10 Sur 18 Sudeste 0 -- -- 68
2020-11-06 09:00:00 19.7 10 Sudeste 16 Sur 0 -- -- 64
2020-11-06 08:00:00 16.3 3 Sudoeste 12 Nordeste 0 -- -- 74
2020-11-06 07:00:00 14.7 3 Nordeste 18 Norte 0 -- -- 75
2020-11-06 06:00:00 13.9 5 Noroeste 17 Nordeste 0 -- -- 76
2020-11-06 05:00:00 14.7 13 Nordeste 20 Nordeste 0 -- -- 70
2020-11-06 04:00:00 14.5 12 Nordeste 19 Norte 0 -- -- 68
2020-11-06 03:00:00 13.8 11 Norte 15 Norte 0 -- -- 78
2020-11-06 02:00:00 13.6 7 Norte 18 Nordeste 0 -- -- 75
2020-11-06 01:00:00 13.8 9 Norte 17 Norte 0 -- -- 73
2020-11-06 00:00:00 14.2 15 Norte 17 Norte 0 -- -- 74
2020-11-05 23:00:00 14.6 13 Norte 21 Nordeste 0 -- -- 71
2020-11-05 22:00:00 14.4 15 Norte 18 Norte 0 -- -- 73
2020-11-05 21:00:00 15.5 12 Norte 20 Norte 0 -- -- 71
2020-11-05 20:00:00 15.9 13 Noroeste 19 Norte 0 -- -- 69
2020-11-05 19:00:00 16.6 9 Noroeste 23 Norte 0 -- -- 66
2020-11-05 18:00:00 17.2 5 Nordeste 20 Sudeste 0 -- -- 63
2020-11-05 17:00:00 18.2 13 Sudeste 24 Este 0 -- -- 67
2020-11-05 16:00:00 17.7 9 Este 21 Sur 0 -- -- 75
2020-11-05 15:00:00 18.3 11 Sur 19 Sur 0 -- -- 71
2020-11-05 14:00:00 18.7 10 Sudeste 15 Sudeste 0 -- -- 70
2020-11-05 13:00:00 17.6 3 Este 8 Este 0 -- -- 77
2020-11-05 12:00:00 16.7 2 Nordeste 9 Oeste 0.4 -- -- 83
2020-11-05 11:00:00 16.9 7 Oeste 17 Sudoeste 0 -- -- 77
2020-11-05 10:00:00 17.3 7 Sudoeste 14 Sudoeste 0 -- -- 74
2020-11-05 09:00:00 15.8 0 Calma 12 Norte 0 -- -- 78
2020-11-05 08:00:00 13.7 11 Norte 14 Norte 0 -- -- 77
2020-11-05 07:00:00 13.9 11 Nordeste 16 Norte 0 -- -- 72
2020-11-05 06:00:00 13.5 9 Norte 17 Sudeste 0 -- -- 83
2020-11-05 05:00:00 14.6 12 Este 21 Este 0 -- -- 86
2020-11-05 04:00:00 14.3 8 Norte 15 Noroeste 0 -- -- 88
2020-11-05 03:00:00 14.5 10 Noroeste 14 Noroeste 0 -- -- 87
2020-11-05 02:00:00 14.9 7 Noroeste 24 Noroeste 0 -- -- 83
2020-11-05 01:00:00 14.4 3 Sudeste 11 Noroeste 0 -- -- 88
2020-11-05 00:00:00 14.2 2 Nordeste 10 Norte 0 -- -- 92
2020-11-04 23:00:00 15.1 8 Norte 17 Noroeste 0 -- -- 90
2020-11-04 22:00:00 15.4 8 Noroeste 17 Noroeste 0 -- -- 91
2020-11-04 21:00:00 15.5 12 Noroeste 18 Noroeste 0 -- -- 93
2020-11-04 20:00:00 15.8 6 Norte 11 Noroeste 0.2 -- -- 93
2020-11-04 19:00:00 16.2 3 Oeste 12 Noroeste 0.4 -- -- 95
2020-11-04 18:00:00 16.4 6 Oeste 14 Noroeste 0 -- -- 93
2020-11-04 17:00:00 16.7 9 Noroeste 15 Este 1.2 -- -- 94
2020-11-04 16:00:00 16.8 10 Sudeste 18 Sudeste 2 -- -- 94
2020-11-04 15:00:00 17 13 Sudeste 31 Sudeste 0.2 -- -- 93
2020-11-04 14:00:00 17.8 22 Sudeste 28 Sudeste 0 -- -- 85
2020-11-04 13:00:00 18.4 22 Sudeste 32 Sudeste 0 -- -- 81
2020-11-04 12:00:00 17.8 17 Sudeste 23 Sur 0 -- -- 89
2020-11-04 11:00:00 17.4 13 Sudeste 33 Sudeste 0 -- -- 91
2020-11-04 10:00:00 17.8 16 Sudeste 27 Sudeste 0 -- -- 89
2020-11-04 09:00:00 17.6 17 Sudeste 23 Sudeste 0 -- -- 87
2020-11-04 08:00:00 17.2 8 Este 17 Este 0 -- -- 84
2020-11-04 07:00:00 17 4 Nordeste 16 Sudeste 0 -- -- 84
2020-11-04 06:00:00 17.2 4 Nordeste 11 Este 0 -- -- 80
2020-11-04 05:00:00 17.4 6 Este 15 Sudeste 0 -- -- 80
2020-11-04 04:00:00 17.7 12 Sudeste 18 Sudeste 0 -- -- 81
2020-11-04 03:00:00 17.3 5 Nordeste 19 Sudeste 0 -- -- 80
2020-11-04 02:00:00 17.5 7 Este 17 Este 0 -- -- 73
2020-11-04 01:00:00 17.5 4 Sur 12 Sur 0 -- -- 83
2020-11-04 00:00:00 17.5 8 Sudeste 16 Sudeste 0 -- -- 85
2020-11-03 23:00:00 17.7 4 Este 24 Sudeste 0 -- -- 82
2020-11-03 22:00:00 17.8 15 Sudeste 28 Sudeste 0 -- -- 85
2020-11-03 21:00:00 18.6 8 Sudeste 27 Este 0 -- -- 70
2020-11-03 20:00:00 19.2 17 Nordeste 39 Sudeste 0 -- -- 60
2020-11-03 19:00:00 19.1 11 Sudeste 27 Sudeste 0 -- -- 64
2020-11-03 18:00:00 20.4 8 Sudoeste 31 Noroeste 0 -- -- 59
2020-11-03 17:00:00 22.4 5 Sudoeste 37 Sudeste 0 -- -- 51
2020-11-03 16:00:00 22.5 22 Sudeste 45 Sudeste 0 -- -- 53
2020-11-03 15:00:00 21.9 31 Sudeste 49 Sudeste 0 -- -- 68
2020-11-03 14:00:00 21.7 27 Sudeste 39 Sudeste 0 -- -- 70
2020-11-03 13:00:00 22 26 Sudeste 50 Sudeste 0 -- -- 67
2020-11-03 12:00:00 21.7 28 Sudeste 41 Sudeste 0 -- -- 69
2020-11-03 11:00:00 21.7 28 Sudeste 45 Sudeste 0 -- -- 71
2020-11-03 10:00:00 22.2 27 Sudeste 44 Sudeste 0 -- -- 56
2020-11-03 09:00:00 20.8 19 Sudeste 39 Sudeste 0 -- -- 57
2020-11-03 08:00:00 18.1 5 Norte 18 Norte 0 -- -- 59
2020-11-03 07:00:00 16.7 13 Norte 17 Noroeste 0 -- -- 62
2020-11-03 06:00:00 17 5 Noroeste 20 Noroeste 0 -- -- 64
2020-11-03 05:00:00 17.3 12 Norte 19 Noroeste 0 -- -- 62
2020-11-03 04:00:00 17 11 Norte 15 Noroeste 0 -- -- 66
2020-11-03 03:00:00 17.2 11 Norte 18 Noroeste 0 -- -- 67
2020-11-03 02:00:00 17.8 12 Noroeste 18 Noroeste 0 -- -- 65
2020-11-03 01:00:00 18.2 12 Noroeste 22 Noroeste 0 -- -- 64
2020-11-03 00:00:00 18.2 12 Noroeste 18 Noroeste 0 -- -- 57
2020-11-02 23:00:00 18.4 10 Noroeste 19 Noroeste 0 -- -- 57
2020-11-02 22:00:00 18.7 12 Noroeste 17 Noroeste 0 -- -- 51
2020-11-02 21:00:00 18.8 12 Noroeste 21 Noroeste 0 -- -- 56
2020-11-02 20:00:00 19.4 13 Noroeste 22 Noroeste 0 -- -- 56
2020-11-02 19:00:00 20.4 12 Noroeste 15 Noroeste 0 -- -- 49
2020-11-02 18:00:00 22 8 Oeste 18 Noroeste 0 -- -- 46
2020-11-02 17:00:00 23.2 9 Sudeste 26 Sudeste 0 -- -- 42
2020-11-02 16:00:00 22.1 6 Oeste 22 Noroeste 0 -- -- 56
2020-11-02 15:00:00 22.1 7 Sudoeste 38 Sudeste 0 -- -- 57
2020-11-02 14:00:00 22.4 20 Sudeste 32 Sudeste 0 -- -- 59
2020-11-02 13:00:00 22.1 13 Sudeste 21 Sudeste 0 -- -- 59
2020-11-02 12:00:00 21.6 10 Sudeste 20 Sur 0 -- -- 65
2020-11-02 11:00:00 20.7 5 Sur 13 Sudeste 0 -- -- 70
2020-11-02 10:00:00 20.5 4 Sudeste 9 Sudeste 0 -- -- 68
2020-11-02 09:00:00 21.2 3 Sur 12 Sudeste 0 -- -- 53
2020-11-02 08:00:00 18.6 6 Noroeste 12 Noroeste 0 -- -- 34
2020-11-02 07:00:00 17 8 Noroeste 12 Noroeste 0 -- -- 33
2020-11-02 06:00:00 17.7 0 Calma 9 Norte 0 -- -- 34
2020-11-02 05:00:00 17.5 4 Noroeste 9 Noroeste 0 -- -- 39
2020-11-02 04:00:00 18.1 5 Noroeste 9 Norte 0 -- -- 34
2020-11-02 03:00:00 18.8 4 Noroeste 9 Norte 0 -- -- 32
2020-11-02 02:00:00 17.8 2 Noroeste 6 Sudeste 0 -- -- 43
2020-11-02 01:00:00 18.1 2 Nordeste 8 Norte 0 -- -- 44
2020-11-02 00:00:00 18.9 4 Noroeste 9 Noroeste 0 -- -- 40
2020-11-01 23:00:00 19.2 2 Norte 12 Norte 0 -- -- 32
2020-11-01 22:00:00 18.7 4 Noroeste 7 Norte 0 -- -- 37
2020-11-01 21:00:00 19.3 3 Norte 7 Nordeste 0 -- -- 42
2020-11-01 20:00:00 20.9 2 Este 10 Norte 0 -- -- 28
2020-11-01 19:00:00 22.4 3 Este 16 Este 0 -- -- 39
2020-11-01 18:00:00 23.4 4 Este 15 Sur 0 -- -- 34
2020-11-01 17:00:00 25.4 4 Sudeste 14 Sudeste 0 -- -- 29
2020-11-01 16:00:00 25.5 6 Sur 22 Sudeste 0 -- -- 29
2020-11-01 15:00:00 26.5 14 Sudeste 22 Sudeste 0 -- -- 27
2020-11-01 14:00:00 28.1 13 Sudeste 25 Sudeste 0 -- -- 21
2020-11-01 13:00:00 27.4 15 Sudeste 26 Sudeste 0 -- -- 26
2020-11-01 12:00:00 27.8 17 Sudeste 26 Sudeste 0 -- -- 27
2020-11-01 11:00:00 26.7 13 Sudeste 21 Sudeste 0 -- -- 27
2020-11-01 10:00:00 27.4 10 Sudeste 19 Sudeste 0 -- -- 24
2020-11-01 09:00:00 26.5 7 Sudeste 17 Sudeste 0 -- -- 23
2020-11-01 08:00:00 23.2 10 Nordeste 22 Norte 0 -- -- 25
2020-11-01 07:00:00 22 9 Nordeste 22 Nordeste 0 -- -- 27
2020-11-01 06:00:00 21.5 14 Norte 21 Norte 0 -- -- 28
2020-11-01 05:00:00 22.8 10 Norte 21 Norte 0 -- -- 25
2020-11-01 04:00:00 21 14 Norte 17 Norte 0 -- -- 28
2020-11-01 03:00:00 21.5 17 Norte 22 Norte 0 -- -- 28
2020-11-01 02:00:00 21.9 11 Norte 21 Norte 0 -- -- 27
2020-11-01 01:00:00 22.2 15 Norte 19 Norte 0 -- -- 26
2020-11-01 00:00:00 22.6 13 Nordeste 24 Norte 0 -- -- 25
2020-10-31 23:00:00 21.6 12 Norte 19 Norte 0 -- -- 28
2020-10-31 22:00:00 22.6 11 Norte 21 Norte 0 -- -- 26
2020-10-31 21:00:00 22.9 13 Nordeste 20 Nordeste 0 -- -- 25
2020-10-31 20:00:00 23.6 12 Norte 19 Nordeste 0 -- -- 24
2020-10-31 19:00:00 24.2 8 Nordeste 19 Noroeste 0 -- -- 23
2020-10-31 18:00:00 24.8 4 Nordeste 15 Nordeste 0 -- -- 24
2020-10-31 17:00:00 26.1 9 Sudeste 18 Sur 0 -- -- 22
2020-10-31 16:00:00 27.4 13 Sudeste 23 Sudeste 0 -- -- 22
2020-10-31 15:00:00 27.9 13 Sudeste 30 Sudeste 0 -- -- 25
2020-10-31 14:00:00 27.8 20 Sudeste 35 Sudeste 0 -- -- 26
2020-10-31 13:00:00 28 24 Sudeste 36 Sudeste 0 -- -- 24
2020-10-31 12:00:00 27.8 23 Sudeste 34 Sudeste 0 -- -- 24
2020-10-31 11:00:00 27.1 16 Sudeste 31 Sudeste 0 -- -- 27
2020-10-31 10:00:00 26.3 18 Sudeste 25 Sudeste 0 -- -- 27
2020-10-31 09:00:00 24.8 6 Sudeste 13 Sudeste 0 -- -- 34
2020-10-31 08:00:00 20.3 6 Nordeste 13 Norte 0 -- -- 39
2020-10-31 07:00:00 19.4 5 Este 12 Nordeste 0 -- -- 37
2020-10-31 06:00:00 19.8 8 Nordeste 16 Norte 0 -- -- 33
2020-10-31 05:00:00 20 10 Norte 17 Nordeste 0 -- -- 32
2020-10-31 04:00:00 21.2 14 Nordeste 19 Nordeste 0 -- -- 29
2020-10-31 03:00:00 21 16 Norte 20 Norte 0 -- -- 28
2020-10-31 02:00:00 19.5 10 Norte 14 Norte 0 -- -- 30
2020-10-31 01:00:00 19.9 7 Norte 16 Norte 0 -- -- 30
2020-10-31 00:00:00 19.7 11 Norte 16 Norte 0 -- -- 33
2020-10-30 23:00:00 20.9 9 Nordeste 18 Este 0 -- -- 33
2020-10-30 22:00:00 19.5 5 Nordeste 18 Norte 0 -- -- 44
2020-10-30 21:00:00 19.7 13 Norte 17 Norte 0 -- -- 42
2020-10-30 20:00:00 20.1 3 Norte 14 Norte 0 -- -- 40
2020-10-30 19:00:00 19.2 6 Norte 10 Norte 0 -- -- 57
2020-10-30 18:00:00 20.6 4 Sudoeste 8 Sur 0 -- -- 81
2020-10-30 17:00:00 21.2 5 Sur 13 Sur 0 -- -- 80
2020-10-30 16:00:00 22 9 Sur 16 Sur 0 -- -- 75
2020-10-30 15:00:00 22.4 10 Sudeste 22 Sudeste 0 -- -- 73
2020-10-30 14:00:00 22.5 11 Sur 20 Sur 0 -- -- 71
2020-10-30 13:00:00 23.2 10 Sudeste 19 Sur 0 -- -- 67
2020-10-30 12:00:00 23 11 Sur 18 Sudeste 0 -- -- 66
2020-10-30 11:00:00 23.4 8 Sur 18 Oeste 0 -- -- 57
2020-10-30 10:00:00 23.1 9 Sudoeste 15 Sudoeste 0 -- -- 48
2020-10-30 09:00:00 22.2 8 Oeste 13 Oeste 0 -- -- 43
2020-10-30 08:00:00 18.8 4 Nordeste 18 Nordeste 0 -- -- 44
2020-10-30 07:00:00 17.4 13 Norte 19 Norte 0 -- -- 45
2020-10-30 06:00:00 17.5 14 Norte 18 Norte 0 -- -- 42
2020-10-30 05:00:00 16.3 10 Nordeste 15 Nordeste 0 -- -- 47
2020-10-30 04:00:00 15.3 6 Nordeste 12 Norte 0 -- -- 53
2020-10-30 03:00:00 15.3 10 Norte 13 Norte 0 -- -- 57
2020-10-30 02:00:00 15.3 4 Norte 9 Norte 0 -- -- 55
2020-10-30 01:00:00 15.8 9 Norte 14 Norte 0 -- -- 50
2020-10-30 00:00:00 15.1 10 Norte 14 Norte 0 -- -- 61
2020-10-29 23:00:00 15.6 6 Norte 10 Norte 0 -- -- 58
2020-10-29 22:00:00 16.9 0 Calma 14 Norte 0 -- -- 56
2020-10-29 21:00:00 16.8 8 Norte 12 Norte 0 -- -- 50
2020-10-29 20:00:00 17.3 4 Norte 14 Norte 0 -- -- 64
2020-10-29 19:00:00 18.4 12 Norte 21 Noroeste 0 -- -- 66
2020-10-29 18:00:00 20 13 Noroeste 18 Noroeste 0 -- -- 62
2020-10-29 17:00:00 21.9 5 Sur 26 Sudeste 0 -- -- 53
2020-10-29 16:00:00 22.5 14 Sur 30 Oeste 0 -- -- 51
2020-10-29 15:00:00 23.5 15 Sudoeste 24 Sudoeste 0 -- -- 50
2020-10-29 14:00:00 22.5 11 Oeste 29 Oeste 0 -- -- 52
2020-10-29 13:00:00 21.7 13 Sudoeste 32 Sudeste 0 -- -- 54
2020-10-29 12:00:00 22 20 Sudeste 37 Sur 0 -- -- 53
2020-10-29 11:00:00 20.6 11 Sudeste 22 Sur 0 -- -- 56
2020-10-29 10:00:00 19.8 7 Sur 11 Sudoeste 0 -- -- 58
2020-10-29 09:00:00 17 0 Calma 11 Noroeste 0 -- -- 68
2020-10-29 08:00:00 15.4 8 Norte 14 Norte 0 -- -- 74
2020-10-29 07:00:00 14.1 12 Norte 17 Norte 0 -- -- 77
2020-10-29 06:00:00 14.8 12 Norte 17 Norte 0 -- -- 77
2020-10-29 05:00:00 15 12 Norte 17 Norte 0 -- -- 76
2020-10-29 04:00:00 15.1 12 Norte 18 Noroeste 0 -- -- 76
2020-10-29 03:00:00 15.1 11 Norte 22 Noroeste 0 -- -- 75
2020-10-29 02:00:00 15 13 Noroeste 18 Noroeste 0 -- -- 77
2020-10-29 01:00:00 15.1 10 Norte 16 Norte 0 -- -- 76
2020-10-29 00:00:00 15.5 11 Norte 23 Norte 0 -- -- 76
2020-10-28 23:00:00 15.8 11 Noroeste 20 Noroeste 0 -- -- 78
2020-10-28 22:00:00 16.4 13 Noroeste 20 Noroeste 0 -- -- 78
2020-10-28 21:00:00 16.3 9 Norte 17 Norte 0 -- -- 72
2020-10-28 20:00:00 16.6 12 Norte 14 Norte 0 -- -- 71
2020-10-28 19:00:00 17.4 11 Noroeste 19 Noroeste 0 -- -- 71
2020-10-28 18:00:00 18.5 4 Sudeste 18 Sudeste 0 -- -- 67
2020-10-28 17:00:00 20.5 9 Oeste 26 Noroeste 0 -- -- 61
2020-10-28 16:00:00 21.3 15 Noroeste 25 Noroeste 0 -- -- 60
2020-10-28 15:00:00 21.4 17 Oeste 33 Noroeste 0 -- -- 58
2020-10-28 14:00:00 21.1 14 Oeste 31 Sudeste 0 -- -- 61
2020-10-28 13:00:00 21.5 18 Sur 39 Sudeste 0 -- -- 61
2020-10-28 12:00:00 20.5 11 Sur 22 Sur 0 -- -- 58
2020-10-28 11:00:00 19.6 9 Sudoeste 20 Noroeste 0 -- -- 61
2020-10-28 10:00:00 19 6 Oeste 15 Noroeste 0 -- -- 64
2020-10-28 09:00:00 17.8 4 Sudoeste 8 Noroeste 0 -- -- 69
2020-10-28 08:00:00 15.8 5 Nordeste 13 Norte 0 -- -- 76
2020-10-28 07:00:00 15.6 10 Norte 16 Norte 0 -- -- 76
2020-10-28 06:00:00 15.6 10 Norte 18 Noroeste 0 -- -- 77
2020-10-28 05:00:00 15.9 11 Noroeste 19 Noroeste 0 -- -- 75
2020-10-28 04:00:00 15.8 12 Norte 16 Norte 0 -- -- 76
2020-10-28 03:00:00 15.6 10 Norte 16 Norte 0 -- -- 77
2020-10-28 02:00:00 16 8 Noroeste 15 Norte 0 -- -- 73
2020-10-28 01:00:00 16 12 Norte 18 Norte 0 -- -- 76
2020-10-28 00:00:00 16 8 Norte 16 Norte 0 -- -- 75
2020-10-27 23:00:00 16.6 12 Noroeste 21 Noroeste 0 -- -- 74
2020-10-27 22:00:00 16.3 5 Norte 9 Norte 0 -- -- 78
2020-10-27 21:00:00 17 4 Nordeste 20 Noroeste 0 -- -- 78
2020-10-27 20:00:00 17.5 13 Noroeste 25 Noroeste 0 -- -- 78
2020-10-27 19:00:00 18.1 13 Noroeste 24 Noroeste 0 -- -- 76
2020-10-27 18:00:00 19 10 Noroeste 29 Noroeste 0 -- -- 74
2020-10-27 17:00:00 20.5 18 Noroeste 29 Noroeste 0 -- -- 68
2020-10-27 16:00:00 21.5 19 Noroeste 34 Noroeste 0 -- -- 64
2020-10-27 15:00:00 23.3 19 Oeste 31 Oeste 0 -- -- 54
2020-10-27 14:00:00 23 18 Noroeste 33 Noroeste 0 -- -- 55
2020-10-27 13:00:00 22.1 22 Noroeste 33 Noroeste 0 -- -- 61
2020-10-27 12:00:00 20.4 11 Oeste 42 Sudeste 0 -- -- 68
2020-10-27 11:00:00 22.2 7 Noroeste 26 Sur 0 -- -- 65
2020-10-27 10:00:00 21 9 Oeste 19 Oeste 0 -- -- 66
2020-10-27 09:00:00 18.3 8 Noroeste 12 Noroeste 0 -- -- 71
2020-10-27 08:00:00 16.9 9 Norte 17 Norte 0 -- -- 71
2020-10-27 07:00:00 15.2 14 Norte 19 Norte 0 -- -- 75
2020-10-27 06:00:00 15.6 15 Norte 22 Noroeste 0 -- -- 77
2020-10-27 05:00:00 15.4 14 Norte 21 Norte 0 -- -- 78
2020-10-27 04:00:00 16.7 2 Sudeste 17 Norte 0 -- -- 75
2020-10-27 03:00:00 16.1 12 Norte 18 Norte 0 -- -- 77
2020-10-27 02:00:00 17.1 7 Este 19 Este 0 -- -- 72
2020-10-27 01:00:00 16.5 13 Nordeste 21 Nordeste 0 -- -- 62
2020-10-27 00:00:00 16 14 Nordeste 18 Nordeste 0 -- -- 60
2020-10-26 23:00:00 16.2 5 Norte 16 Norte 0 -- -- 70
2020-10-26 22:00:00 16.4 12 Norte 19 Norte 0 -- -- 68
2020-10-26 21:00:00 16.1 13 Norte 19 Norte 0 -- -- 72
2020-10-26 20:00:00 16.6 9 Norte 14 Norte 0 -- -- 77
2020-10-26 19:00:00 17.6 10 Norte 16 Noroeste 0 -- -- 77
2020-10-26 18:00:00 18.3 5 Sudoeste 21 Sudeste 0 -- -- 74
2020-10-26 17:00:00 18.8 15 Sudeste 26 Sudeste 0 -- -- 77
2020-10-26 16:00:00 19.4 17 Sudeste 27 Sudeste 0 -- -- 73
2020-10-26 15:00:00 20.5 20 Sudeste 30 Sudeste 0 -- -- 70
2020-10-26 14:00:00 20.8 18 Sudeste 30 Sudeste 0 -- -- 68
2020-10-26 13:00:00 21 18 Sudeste 39 Sudeste 0 -- -- 65
2020-10-26 12:00:00 21.1 24 Sudeste 34 Sudeste 0 -- -- 64
2020-10-26 11:00:00 20.5 19 Sudeste 29 Sur 0 -- -- 65
2020-10-26 10:00:00 20.2 13 Sudoeste 25 Sur 0 -- -- 67
2020-10-26 09:00:00 19 9 Oeste 14 Oeste 0 -- -- 69
2020-10-26 08:00:00 16.3 10 Noroeste 21 Noroeste 0 -- -- 74
2020-10-26 07:00:00 15 13 Norte 21 Noroeste 0 -- -- 79
2020-10-26 06:00:00 15 9 Noroeste 16 Noroeste 0 -- -- 79
2020-10-26 05:00:00 15.3 13 Norte 22 Noroeste 0 -- -- 77
2020-10-26 04:00:00 15.1 12 Norte 22 Noroeste 0 -- -- 77
2020-10-26 03:00:00 15 11 Norte 18 Norte 0 -- -- 80
2020-10-26 02:00:00 15.2 11 Norte 15 Norte 0 -- -- 81
2020-10-26 01:00:00 15.4 11 Norte 14 Norte 0 -- -- 79
2020-10-26 00:00:00 15.7 11 Norte 16 Norte 0 -- -- 78